createdAt,value
2022-11-30T00:01:24.920Z,27.13
2022-11-30T00:03:57.298Z,26.83
2022-11-30T00:06:26.034Z,27.27
2022-11-30T00:08:57.986Z,27.53
2022-11-30T00:11:28.595Z,27.23
2022-11-30T00:13:56.428Z,26.03
2022-11-30T00:16:24.270Z,26.73
2022-11-30T00:18:51.964Z,27.67
2022-11-30T00:21:19.720Z,25.40
2022-11-30T00:23:48.190Z,26.00
2022-11-30T00:26:18.979Z,25.60
2022-11-30T00:28:47.706Z,26.60
2022-11-30T00:31:18.316Z,25.83
2022-11-30T00:33:45.887Z,25.63
2022-11-30T00:36:19.715Z,26.30
2022-11-30T00:38:48.468Z,27.73
2022-11-30T00:41:17.093Z,27.07
2022-11-30T00:43:45.255Z,26.40
2022-11-30T00:46:13.237Z,25.40
2022-11-30T00:48:41.771Z,26.90
2022-11-30T00:51:11.429Z,28.03
2022-11-30T00:53:40.035Z,27.70
2022-11-30T00:56:08.961Z,26.42
2022-11-30T00:58:36.156Z,24.37
2022-11-30T01:01:03.724Z,24.40
2022-11-30T01:03:31.064Z,25.53
2022-11-30T01:06:10.945Z,26.20
2022-11-30T01:08:38.847Z,27.63
2022-11-30T01:11:27.550Z,26.10
2022-11-30T01:13:57.251Z,27.33
2022-11-30T01:16:29.201Z,26.73
2022-11-30T01:18:57.208Z,27.13
2022-11-30T01:21:28.670Z,29.47
2022-11-30T01:23:56.370Z,26.60
2022-11-30T01:26:24.366Z,27.47
2022-11-30T01:28:54.353Z,27.43
2022-11-30T01:31:24.813Z,28.00
2022-11-30T01:33:55.198Z,26.30
2022-11-30T01:36:26.490Z,25.13
2022-11-30T01:38:57.122Z,24.53
2022-11-30T01:41:31.924Z,25.97
2022-11-30T01:44:26.227Z,25.73
2022-11-30T01:47:01.231Z,27.20
2022-11-30T01:49:51.527Z,23.47
2022-11-30T01:52:23.341Z,26.93
2022-11-30T01:55:26.738Z,27.10
2022-11-30T01:58:05.395Z,26.70
2022-11-30T02:00:32.977Z,25.73
2022-11-30T02:03:25.072Z,27.57
2022-11-30T02:05:52.435Z,26.87
2022-11-30T02:08:20.466Z,26.27
2022-11-30T02:10:55.413Z,27.33
2022-11-30T02:14:08.416Z,27.13
2022-11-30T02:17:15.014Z,27.10
2022-11-30T02:20:19.691Z,27.37
2022-11-30T02:22:53.112Z,26.57
2022-11-30T02:25:52.557Z,25.83
2022-11-30T02:29:08.204Z,27.10
2022-11-30T02:31:54.455Z,27.90
2022-11-30T02:34:27.865Z,27.87
2022-11-30T02:36:58.393Z,29.33
2022-11-30T02:39:25.852Z,26.98
2022-11-30T02:41:53.513Z,29.50
2022-11-30T02:44:23.096Z,28.03
2022-11-30T02:47:10.899Z,27.53
2022-11-30T02:49:48.860Z,29.50
2022-11-30T02:52:19.874Z,28.33
2022-11-30T02:54:47.425Z,27.00
2022-11-30T02:57:15.218Z,28.23
2022-11-30T02:59:42.763Z,29.02
2022-11-30T03:02:10.188Z,27.38
2022-11-30T03:04:37.418Z,29.40
2022-11-30T03:07:05.011Z,28.50
2022-11-30T03:09:32.201Z,28.33
2022-11-30T03:11:59.662Z,30.83
2022-11-30T03:14:26.879Z,30.17
2022-11-30T03:16:54.346Z,29.67
2022-11-30T03:19:21.505Z,29.30
2022-11-30T03:21:49.137Z,28.53
2022-11-30T03:24:16.345Z,29.43
2022-11-30T03:26:44.157Z,28.00
2022-11-30T03:29:11.299Z,30.30
2022-11-30T03:31:38.744Z,30.70
2022-11-30T03:34:05.931Z,30.65
2022-11-30T03:36:33.524Z,30.33
2022-11-30T03:39:00.768Z,30.23
2022-11-30T03:41:28.229Z,28.87
2022-11-30T03:43:56.242Z,30.03
2022-11-30T03:46:23.828Z,30.83
2022-11-30T03:48:50.969Z,30.00
2022-11-30T03:51:18.700Z,30.40
2022-11-30T03:53:46.021Z,30.63
2022-11-30T03:56:14.516Z,29.73
2022-11-30T03:58:42.309Z,28.47
2022-11-30T04:01:17.053Z,31.60
2022-11-30T04:03:44.552Z,27.97
2022-11-30T04:06:13.308Z,28.30
2022-11-30T04:08:41.334Z,28.97
2022-11-30T04:11:09.838Z,30.73
2022-11-30T04:13:39.384Z,30.57
2022-11-30T04:16:07.865Z,30.13
2022-11-30T04:18:37.212Z,30.80
2022-11-30T04:21:06.735Z,33.00
2022-11-30T04:23:39.708Z,30.87
2022-11-30T04:26:12.298Z,29.47
2022-11-30T04:28:40.151Z,31.40
2022-11-30T04:31:07.769Z,29.23
2022-11-30T04:33:35.268Z,28.75
2022-11-30T04:36:07.391Z,28.23
2022-11-30T04:38:36.581Z,30.73
2022-11-30T04:41:09.013Z,31.27
2022-11-30T04:43:36.709Z,31.27
2022-11-30T04:46:06.098Z,28.73
2022-11-30T04:48:33.942Z,30.88
2022-11-30T04:51:07.901Z,27.77
2022-11-30T04:53:38.033Z,26.03
2022-11-30T04:56:11.139Z,28.67
2022-11-30T04:58:39.200Z,28.93
2022-11-30T05:01:07.810Z,30.57
2022-11-30T05:03:35.262Z,30.43
2022-11-30T05:06:03.878Z,29.83
2022-11-30T05:08:31.201Z,30.35
2022-11-30T05:10:58.988Z,30.07
2022-11-30T05:13:26.928Z,30.55
2022-11-30T05:15:54.915Z,29.47
2022-11-30T05:18:22.623Z,29.20
2022-11-30T05:20:52.943Z,27.97
2022-11-30T05:23:21.274Z,27.80
2022-11-30T05:25:49.298Z,26.53
2022-11-30T05:28:16.695Z,27.13
2022-11-30T05:30:44.508Z,26.80
2022-11-30T05:33:12.395Z,31.23
2022-11-30T05:35:39.900Z,29.77
2022-11-30T05:38:07.122Z,32.05
2022-11-30T05:40:35.035Z,31.13
2022-11-30T05:43:04.336Z,34.85
2022-11-30T05:45:32.089Z,32.90
2022-11-30T05:47:59.301Z,38.13
2022-11-30T05:50:26.771Z,30.75
2022-11-30T05:52:57.906Z,28.47
2022-11-30T05:55:25.609Z,30.42
2022-11-30T05:57:53.646Z,28.03
2022-11-30T06:00:22.130Z,27.73
2022-11-30T06:02:49.379Z,29.47
2022-11-30T06:05:17.004Z,29.05
2022-11-30T06:07:44.291Z,27.27
2022-11-30T06:10:12.468Z,26.67
2022-11-30T06:12:39.671Z,27.33
2022-11-30T06:15:08.719Z,25.20
2022-11-30T06:17:38.028Z,26.10
2022-11-30T06:20:07.919Z,26.83
2022-11-30T06:22:35.328Z,24.80
2022-11-30T06:25:02.897Z,27.67
2022-11-30T06:27:32.993Z,26.90
2022-11-30T06:30:00.520Z,26.77
2022-11-30T06:32:27.868Z,24.47
2022-11-30T06:34:55.402Z,26.75
2022-11-30T06:37:22.548Z,25.67
2022-11-30T06:40:05.900Z,25.47
2022-11-30T06:42:35.275Z,28.77
2022-11-30T06:45:04.106Z,28.77
2022-11-30T06:47:31.453Z,27.43
2022-11-30T06:49:58.934Z,27.30
2022-11-30T06:52:26.146Z,27.50
2022-11-30T06:54:53.596Z,27.35
2022-11-30T06:57:21.158Z,25.20
2022-11-30T06:59:48.572Z,25.63
2022-11-30T07:02:18.481Z,27.67
2022-11-30T07:04:47.366Z,26.83
2022-11-30T07:07:14.802Z,26.03
2022-11-30T07:09:42.414Z,28.07
2022-11-30T07:12:09.683Z,26.67
2022-11-30T07:14:37.264Z,26.53
2022-11-30T07:17:04.882Z,27.47
2022-11-30T07:19:35.901Z,29.90
2022-11-30T07:22:03.448Z,28.20
2022-11-30T07:24:49.534Z,27.03
2022-11-30T07:27:16.867Z,28.33
2022-11-30T07:29:44.522Z,30.00
2022-11-30T07:32:11.751Z,27.33
2022-11-30T07:34:39.298Z,28.23
2022-11-30T07:37:06.666Z,29.23
2022-11-30T07:39:34.157Z,28.27
2022-11-30T07:42:02.027Z,27.57
2022-11-30T07:44:29.482Z,28.33
2022-11-30T07:46:56.808Z,49.43
2022-11-30T07:49:24.261Z,31.60
2022-11-30T07:51:51.359Z,29.23
2022-11-30T07:54:19.116Z,27.07
2022-11-30T07:56:46.276Z,26.30
2022-11-30T07:59:13.771Z,26.17
2022-11-30T08:01:40.992Z,25.87
2022-11-30T08:04:08.630Z,28.73
2022-11-30T08:06:35.823Z,26.90
2022-11-30T08:09:04.544Z,27.07
2022-11-30T08:11:35.463Z,27.47
2022-11-30T08:14:04.582Z,26.60
2022-11-30T08:16:38.258Z,26.23
2022-11-30T08:19:06.123Z,27.50
2022-11-30T08:21:33.446Z,27.13
2022-11-30T08:24:01.228Z,28.25
2022-11-30T08:26:33.251Z,27.33
2022-11-30T08:29:02.171Z,26.77
2022-11-30T08:31:34.037Z,27.33
2022-11-30T08:34:09.779Z,25.50
2022-11-30T08:36:38.544Z,24.40
2022-11-30T08:39:09.398Z,26.57
2022-11-30T08:41:36.996Z,26.73
2022-11-30T08:44:05.036Z,25.10
2022-11-30T08:49:24.429Z,26.70
2022-11-30T08:54:46.093Z,27.13
2022-11-30T08:57:17.601Z,28.50
2022-11-30T08:59:46.068Z,29.17
2022-11-30T09:02:17.986Z,28.70
2022-11-30T09:04:49.474Z,29.17
2022-11-30T09:07:17.742Z,28.73
2022-11-30T09:09:45.464Z,29.93
2022-11-30T09:12:12.714Z,29.90
2022-11-30T09:14:40.233Z,30.23
2022-11-30T09:17:07.403Z,27.93
2022-11-30T09:19:34.824Z,27.93
2022-11-30T09:22:02.058Z,28.53
2022-11-30T09:24:29.658Z,28.57
2022-11-30T09:26:57.561Z,27.40
2022-11-30T09:29:25.118Z,26.60
2022-11-30T09:31:52.331Z,29.40
2022-11-30T09:34:20.020Z,29.27
2022-11-30T09:36:47.211Z,27.50
2022-11-30T09:39:14.686Z,25.73
2022-11-30T09:42:21.118Z,34.13
2022-11-30T09:45:03.128Z,23.50
2022-11-30T09:47:53.225Z,23.43
2022-11-30T09:50:29.415Z,24.70
2022-11-30T09:53:07.122Z,24.98
2022-11-30T09:55:42.107Z,24.27
2022-11-30T09:58:46.907Z,23.60
2022-11-30T10:01:20.259Z,25.63
2022-11-30T10:03:48.291Z,24.80
2022-11-30T10:06:34.714Z,24.23
2022-11-30T10:10:15.953Z,24.60
2022-11-30T10:12:50.897Z,24.27
2022-11-30T10:15:33.586Z,23.13
2022-11-30T10:18:31.058Z,22.60
2022-11-30T10:21:25.719Z,21.85
2022-11-30T10:24:19.293Z,23.37
2022-11-30T10:26:55.495Z,23.00
2022-11-30T10:29:26.325Z,24.27
2022-11-30T10:31:59.288Z,21.98
2022-11-30T10:34:35.969Z,23.53
2022-11-30T10:37:37.531Z,25.93
2022-11-30T10:40:25.377Z,26.10
2022-11-30T10:43:12.336Z,24.67
2022-11-30T10:45:48.832Z,23.33
2022-11-30T10:48:46.994Z,23.60
2022-11-30T10:51:15.094Z,20.87
2022-11-30T10:53:42.254Z,24.10
2022-11-30T10:56:12.543Z,24.13
2022-11-30T10:59:00.009Z,23.60
2022-11-30T11:01:38.231Z,23.40
2022-11-30T11:04:17.034Z,22.38
2022-11-30T11:07:11.301Z,23.67
2022-11-30T11:09:50.431Z,24.30
2022-11-30T11:12:31.046Z,22.97
2022-11-30T11:15:26.672Z,23.27
2022-11-30T11:18:21.578Z,24.30
2022-11-30T11:21:04.132Z,22.98
2022-11-30T11:23:39.499Z,23.75
2022-11-30T11:26:20.021Z,25.20
2022-11-30T11:28:51.381Z,25.20
2022-11-30T11:31:44.458Z,25.30
2022-11-30T11:34:34.945Z,23.75
2022-11-30T11:37:17.223Z,25.95
2022-11-30T11:40:02.554Z,25.50
2022-11-30T11:42:37.145Z,25.38
2022-11-30T11:45:06.544Z,25.58
2022-11-30T11:47:45.102Z,24.70
2022-11-30T11:50:12.547Z,24.23
2022-11-30T11:52:40.008Z,25.63
2022-11-30T11:55:17.983Z,24.58
2022-11-30T11:58:02.822Z,23.95
2022-11-30T12:00:31.516Z,25.48
2022-11-30T12:03:29.930Z,25.90
2022-11-30T12:06:05.577Z,25.58
2022-11-30T12:08:49.207Z,25.70
2022-11-30T12:11:27.725Z,23.98
2022-11-30T12:13:55.023Z,27.05
2022-11-30T12:17:20.067Z,25.52
2022-11-30T12:20:05.016Z,25.48
2022-11-30T12:23:21.919Z,24.85
2022-11-30T12:26:26.949Z,23.02
2022-11-30T12:29:23.347Z,24.92
2022-11-30T12:32:13.627Z,23.57
2022-11-30T12:34:56.129Z,23.55
2022-11-30T12:37:35.624Z,22.80
2022-11-30T12:40:51.746Z,22.77
2022-11-30T12:43:39.904Z,24.65
2022-11-30T12:46:56.387Z,21.15
2022-11-30T12:49:59.100Z,20.95
2022-11-30T12:52:54.221Z,21.67
2022-11-30T12:55:40.260Z,22.48
2022-11-30T12:58:58.878Z,21.93
2022-11-30T13:01:34.444Z,20.67
2022-11-30T13:04:19.484Z,21.15
2022-11-30T13:07:08.803Z,19.75
2022-11-30T13:09:56.504Z,20.58
2022-11-30T13:12:37.139Z,21.02
2022-11-30T13:15:22.871Z,21.92
2022-11-30T13:17:52.231Z,22.67
2022-11-30T13:20:45.333Z,22.48
2022-11-30T13:23:55.634Z,24.63
2022-11-30T13:26:37.599Z,24.70
2022-11-30T13:29:39.283Z,25.45
2022-11-30T13:32:48.653Z,26.13
2022-11-30T13:35:29.093Z,24.83
2022-11-30T13:38:36.282Z,22.33
2022-11-30T13:41:08.483Z,21.17
2022-11-30T13:43:45.651Z,22.57
2022-11-30T13:46:24.120Z,20.83
2022-11-30T13:49:18.422Z,22.77
2022-11-30T13:51:45.791Z,23.13
2022-11-30T13:54:54.544Z,21.98
2022-11-30T13:57:24.856Z,21.70
2022-11-30T13:59:54.012Z,25.53
2022-11-30T14:02:33.775Z,25.63
2022-11-30T14:05:16.792Z,28.77
2022-11-30T14:07:52.999Z,30.57
2022-11-30T14:10:33.805Z,26.27
2022-11-30T14:13:07.391Z,25.50
2022-11-30T14:15:41.867Z,21.20
2022-11-30T14:18:09.084Z,21.30
2022-11-30T14:20:53.705Z,23.58
2022-11-30T14:24:00.671Z,18.97
2022-11-30T14:26:41.963Z,19.65
2022-11-30T14:29:09.029Z,17.90
2022-11-30T14:31:48.575Z,17.73
2022-11-30T14:34:36.359Z,20.87
2022-11-30T14:37:16.203Z,22.77
2022-11-30T14:39:46.904Z,21.35
2022-11-30T14:42:27.779Z,20.03
2022-11-30T14:44:56.501Z,23.25
2022-11-30T14:47:30.038Z,21.27
2022-11-30T14:50:02.335Z,21.77
2022-11-30T14:52:44.123Z,22.07
2022-11-30T14:55:18.952Z,22.27
2022-11-30T14:58:32.638Z,22.67
2022-11-30T15:01:03.808Z,24.85
2022-11-30T15:03:40.436Z,22.40
2022-11-30T15:06:08.603Z,23.93
2022-11-30T15:08:44.328Z,22.77
2022-11-30T15:11:15.164Z,24.20
2022-11-30T15:13:49.126Z,23.13
2022-11-30T15:16:25.383Z,23.10
2022-11-30T15:18:56.312Z,21.38
2022-11-30T15:21:26.556Z,22.38
2022-11-30T15:24:00.753Z,20.47
2022-11-30T15:26:49.786Z,21.10
2022-11-30T15:29:40.717Z,23.27
2022-11-30T15:32:17.614Z,21.00
2022-11-30T15:34:54.871Z,20.93
2022-11-30T15:37:43.615Z,20.17
2022-11-30T15:40:26.815Z,20.93
2022-11-30T15:42:54.121Z,23.43
2022-11-30T15:45:36.253Z,23.30
2022-11-30T15:48:35.826Z,26.07
2022-11-30T15:51:03.782Z,24.97
2022-11-30T15:53:35.556Z,25.77
2022-11-30T15:56:09.097Z,26.50
2022-11-30T15:58:47.658Z,25.55
2022-11-30T16:01:24.807Z,24.13
2022-11-30T16:04:05.873Z,23.77
2022-11-30T16:06:51.552Z,22.93
2022-11-30T16:09:32.277Z,23.37
2022-11-30T16:12:02.535Z,22.50
2022-11-30T16:14:29.810Z,24.30
2022-11-30T16:16:57.780Z,23.77
2022-11-30T16:19:25.133Z,23.97
2022-11-30T16:21:52.759Z,23.90
2022-11-30T16:24:20.431Z,25.13
2022-11-30T16:26:51.880Z,23.67
2022-11-30T16:29:20.305Z,23.77
2022-11-30T16:31:47.935Z,24.70
2022-11-30T16:34:15.092Z,24.10
2022-11-30T16:36:42.542Z,26.23
2022-11-30T16:39:12.824Z,25.80
2022-11-30T16:41:40.439Z,29.10
2022-11-30T16:44:14.304Z,25.63
2022-11-30T16:46:42.126Z,23.37
2022-11-30T16:49:09.395Z,23.50
2022-11-30T16:51:37.475Z,24.47
2022-11-30T16:54:05.139Z,24.73
2022-11-30T16:56:33.335Z,24.77
2022-11-30T16:59:00.609Z,26.23
2022-11-30T17:01:43.847Z,26.13
2022-11-30T17:04:22.965Z,27.80
2022-11-30T17:06:57.220Z,25.20
2022-11-30T17:09:29.954Z,25.73
2022-11-30T17:11:57.538Z,26.57
2022-11-30T17:14:24.710Z,29.90
2022-11-30T17:16:52.305Z,29.43
2022-11-30T17:19:19.808Z,29.47
2022-11-30T17:21:48.435Z,28.70
2022-11-30T17:24:15.983Z,28.50
2022-11-30T17:26:43.772Z,28.80
2022-11-30T17:29:10.949Z,31.00
2022-11-30T17:31:38.454Z,31.57
2022-11-30T17:34:08.705Z,28.63
2022-11-30T17:36:36.285Z,27.67
2022-11-30T17:39:08.847Z,29.90
2022-11-30T17:41:36.362Z,30.13
2022-11-30T17:44:03.754Z,28.83
2022-11-30T17:46:31.366Z,27.63
2022-11-30T17:48:58.709Z,28.27
2022-11-30T17:51:26.332Z,28.77
2022-11-30T17:53:53.565Z,27.47
2022-11-30T17:56:21.076Z,28.57
2022-11-30T17:58:49.381Z,26.63
2022-11-30T18:01:20.632Z,28.17
2022-11-30T18:03:48.398Z,26.73
2022-11-30T18:06:16.907Z,26.37
2022-11-30T18:08:44.529Z,25.13
2022-11-30T18:11:17.346Z,26.40
2022-11-30T18:13:44.841Z,26.07
2022-11-30T18:16:19.259Z,28.10
2022-11-30T18:18:48.470Z,27.60
2022-11-30T18:21:20.589Z,25.60
2022-11-30T18:23:49.148Z,24.07
2022-11-30T18:26:23.010Z,25.07
2022-11-30T18:28:58.063Z,28.20
2022-11-30T18:31:27.941Z,24.83
2022-11-30T18:33:58.563Z,24.80
2022-11-30T18:36:26.711Z,25.43
2022-11-30T18:38:54.320Z,24.77
2022-11-30T18:41:22.320Z,28.47
2022-11-30T18:43:49.601Z,25.27
2022-11-30T18:46:17.137Z,24.97
2022-11-30T18:48:47.933Z,24.80
2022-11-30T18:51:34.378Z,25.33
2022-11-30T18:54:07.701Z,26.70
2022-11-30T18:56:38.261Z,27.80
2022-11-30T18:59:14.800Z,24.93
2022-11-30T19:01:42.710Z,25.77
2022-11-30T19:04:11.861Z,26.27
2022-11-30T19:06:42.143Z,30.50
2022-11-30T19:09:13.836Z,27.20
2022-11-30T19:11:42.834Z,25.87
2022-11-30T19:14:14.583Z,25.20
2022-11-30T19:16:43.014Z,24.67
2022-11-30T19:19:14.548Z,27.03
2022-11-30T19:21:48.028Z,26.63
2022-11-30T19:24:16.737Z,27.30
2022-11-30T19:26:44.240Z,27.97
2022-11-30T19:29:12.409Z,27.03
2022-11-30T19:31:40.284Z,24.43
2022-11-30T19:34:12.619Z,22.87
2022-11-30T19:36:41.881Z,22.27
2022-11-30T19:39:10.955Z,23.03
2022-11-30T19:41:39.313Z,22.37
2022-11-30T19:44:06.580Z,25.50
2022-11-30T19:46:34.922Z,24.60
2022-11-30T19:49:02.694Z,28.07
2022-11-30T19:51:31.950Z,27.87
2022-11-30T19:53:59.887Z,24.73
2022-11-30T19:56:32.313Z,22.87
2022-11-30T19:59:04.679Z,23.33
2022-11-30T20:01:34.161Z,25.10
2022-11-30T20:04:01.480Z,22.43
2022-11-30T20:06:36.095Z,23.60
2022-11-30T20:09:07.202Z,24.15
2022-11-30T20:11:35.376Z,22.97
2022-11-30T20:14:03.897Z,22.42
2022-11-30T20:16:31.629Z,22.90
2022-11-30T20:19:01.744Z,23.00
2022-11-30T20:21:36.192Z,21.57
2022-11-30T20:24:07.797Z,23.60
2022-11-30T20:26:42.987Z,23.73
2022-11-30T20:29:16.597Z,24.77
2022-11-30T20:31:47.587Z,21.23
2022-11-30T20:34:15.865Z,24.40
2022-11-30T20:36:43.769Z,23.87
2022-11-30T20:39:12.069Z,23.17
2022-11-30T20:41:39.824Z,23.25
2022-11-30T20:44:07.270Z,24.13
2022-11-30T20:46:36.158Z,23.67
2022-11-30T20:49:13.501Z,23.07
2022-11-30T20:51:41.237Z,23.17
2022-11-30T20:54:08.590Z,22.42
2022-11-30T20:56:38.184Z,22.83
2022-11-30T20:59:19.620Z,21.63
2022-11-30T21:01:47.427Z,22.40
2022-11-30T21:04:14.663Z,22.45
2022-11-30T21:06:45.574Z,22.50
2022-11-30T21:09:15.120Z,22.13
2022-11-30T21:11:43.714Z,24.83
2022-11-30T21:14:11.271Z,24.57
2022-11-30T21:16:39.805Z,23.48
2022-11-30T21:19:07.264Z,23.53
2022-11-30T21:21:35.829Z,22.55
2022-11-30T21:24:07.741Z,21.47
2022-11-30T21:26:42.497Z,22.30
2022-11-30T21:29:18.248Z,21.03
2022-11-30T21:31:46.285Z,22.67
2022-11-30T21:34:14.103Z,24.07
2022-11-30T21:36:42.643Z,20.97
2022-11-30T21:39:14.219Z,21.73
2022-11-30T21:41:42.258Z,22.40
2022-11-30T21:44:16.101Z,22.00
2022-11-30T21:46:46.543Z,22.00
2022-11-30T21:49:15.916Z,21.88
2022-11-30T21:51:44.108Z,22.47
2022-11-30T21:54:13.352Z,22.73
2022-11-30T21:56:43.777Z,23.47
2022-11-30T21:59:14.464Z,24.30
2022-11-30T22:01:43.998Z,24.27
2022-11-30T22:04:14.149Z,24.50
2022-11-30T22:06:43.378Z,22.33
2022-11-30T22:09:17.537Z,23.90
2022-11-30T22:11:45.748Z,24.57
2022-11-30T22:14:16.867Z,23.47
2022-11-30T22:16:45.332Z,23.97
2022-11-30T22:19:15.796Z,25.25
2022-11-30T22:21:49.405Z,25.87
2022-11-30T22:24:17.577Z,24.07
2022-11-30T22:26:46.737Z,22.93
2022-11-30T22:29:21.263Z,23.37
2022-11-30T22:31:53.414Z,21.43
2022-11-30T22:34:21.449Z,17.73
2022-11-30T22:36:48.998Z,17.10
2022-11-30T22:39:21.816Z,17.30
2022-11-30T22:41:55.150Z,16.53
2022-11-30T22:44:25.747Z,17.20
2022-11-30T22:46:59.846Z,16.23
2022-11-30T22:49:27.155Z,17.57
2022-11-30T22:51:54.600Z,17.20
2022-11-30T22:54:21.909Z,17.80
2022-11-30T22:56:49.423Z,17.10
2022-11-30T22:59:16.792Z,15.97
2022-11-30T23:01:49.788Z,15.37
2022-11-30T23:04:20.191Z,15.97
2022-11-30T23:06:49.980Z,16.17
2022-11-30T23:09:22.939Z,17.63
2022-11-30T23:11:52.112Z,17.90
2022-11-30T23:14:19.937Z,14.97
2022-11-30T23:16:48.064Z,16.77
2022-11-30T23:19:16.103Z,16.83
2022-11-30T23:21:45.448Z,15.53
2022-11-30T23:24:18.034Z,16.00
2022-11-30T23:26:46.107Z,15.37
2022-11-30T23:29:16.095Z,16.83
2022-11-30T23:31:45.527Z,15.73
2022-11-30T23:34:20.027Z,16.20
2022-11-30T23:36:49.216Z,17.27
2022-11-30T23:39:19.722Z,16.33
2022-11-30T23:41:47.687Z,17.23
2022-11-30T23:44:15.240Z,16.27
2022-11-30T23:46:42.827Z,17.97
2022-11-30T23:49:13.536Z,18.17
2022-11-30T23:51:42.247Z,18.45
2022-11-30T23:54:09.504Z,17.03
2022-11-30T23:56:37.037Z,16.40
2022-11-30T23:59:04.206Z,15.40
